Time;durP1;ratioP1;P1;durP2;ratioP2;P2;SDS_P1;SDS_P2;PMS_P1;PMS_P2;Temp;Humidity;BMP_temperature;BMP_pressure;BME280_temperature;BME280_humidity;BME280_pressure;Samples;Min_cycle;Max_cycle;Signal;HPM_P1;HPM_P2
2021/12/23 00:01:14;;;;;;;41.75;19.25;;;-3.80;99.90;;;;;;5083710;28;20548;-69
2021/12/23 00:03:40;;;;;;;42.80;20.00;;;-3.80;99.90;;;;;;5079530;28;20085;-69
2021/12/23 00:06:06;;;;;;;35.42;18.73;;;-3.80;99.90;;;;;;5077525;28;20044;-69
2021/12/23 00:08:33;;;;;;;35.50;18.30;;;-3.80;99.90;;;;;;5075061;28;20034;-69
2021/12/23 00:10:59;;;;;;;40.55;20.10;;;-3.80;99.90;;;;;;5077882;28;20114;-68
2021/12/23 00:13:24;;;;;;;39.22;19.00;;;-3.80;99.90;;;;;;5089153;28;20124;-69
2021/12/23 00:23:45;;;;;;;34.25;17.92;;;-3.80;99.90;;;;;;5094434;28;21635;-69
2021/12/23 00:26:11;;;;;;;35.40;17.67;;;-3.80;99.90;;;;;;5087220;28;20118;-69
2021/12/23 00:28:37;;;;;;;38.10;18.42;;;-3.70;99.90;;;;;;5087044;28;20123;-69
2021/12/23 00:31:03;;;;;;;37.45;18.55;;;-3.80;99.90;;;;;;5080422;28;20028;-69
2021/12/23 00:33:30;;;;;;;35.47;17.80;;;-3.80;99.90;;;;;;5083266;28;20032;-69
2021/12/23 00:35:57;;;;;;;35.17;17.85;;;-3.80;99.90;;;;;;5074912;28;20024;-70
2021/12/23 00:38:31;;;;;;;36.00;17.60;;;-3.80;99.90;;;;;;5073835;28;20028;-69
2021/12/23 00:41:01;;;;;;;37.53;17.48;;;-3.80;99.90;;;;;;5072141;28;20081;-69
2021/12/23 00:43:27;;;;;;;37.30;17.27;;;-3.80;99.90;;;;;;5075911;28;20362;-69
2021/12/23 00:45:53;;;;;;;38.00;18.13;;;-3.80;99.90;;;;;;5064225;28;20039;-69
2021/12/23 00:48:19;;;;;;;36.72;18.70;;;-3.80;99.90;;;;;;5072792;28;20043;-70
2021/12/23 00:50:46;;;;;;;36.50;18.35;;;-3.80;99.90;;;;;;5074545;28;20034;-70
2021/12/23 00:53:17;;;;;;;34.30;17.83;;;-3.80;99.90;;;;;;5074733;28;20109;-70
2021/12/23 00:55:45;;;;;;;38.40;18.42;;;-3.80;99.90;;;;;;5076048;28;20023;-69
2021/12/23 00:58:11;;;;;;;37.63;17.83;;;-3.80;99.90;;;;;;5073280;28;20036;-69
2021/12/23 01:00:37;;;;;;;37.67;18.23;;;-3.80;99.90;;;;;;5074269;28;20035;-69
2021/12/23 01:03:03;;;;;;;37.15;18.48;;;-3.80;99.90;;;;;;5078529;28;20030;-69
2021/12/23 01:05:30;;;;;;;36.25;17.65;;;-3.80;99.90;;;;;;5088780;28;20036;-69
2021/12/23 01:07:56;;;;;;;40.13;19.65;;;-3.70;99.90;;;;;;5077769;28;20023;-69
2021/12/23 01:10:23;;;;;;;37.38;18.00;;;-3.70;99.90;;;;;;5073803;28;20028;-69
2021/12/23 01:12:54;;;;;;;38.30;19.50;;;-3.70;99.90;;;;;;5088120;28;20113;-70
2021/12/23 01:20:25;;;;;;;30.67;15.60;;;-3.80;99.90;;;;;;5090614;28;19908;-69
2021/12/23 01:22:50;;;;;;;;;;;-3.90;99.90;;;;;;5084220;28;20042;-69
2021/12/23 01:25:16;;;;;;;36.40;16.92;;;-4.00;99.90;;;;;;5074988;28;19912;-69
2021/12/23 01:27:42;;;;;;;41.22;17.88;;;-4.10;99.90;;;;;;5074882;28;20032;-69
2021/12/23 01:30:08;;;;;;;34.40;17.45;;;-4.10;99.90;;;;;;5072687;28;20431;-69
2021/12/23 01:32:33;;;;;;;45.30;19.00;;;-4.10;99.90;;;;;;5074189;28;20028;-69
2021/12/23 01:34:59;;;;;;;39.10;17.98;;;-4.10;99.90;;;;;;5076605;28;20036;-69
2021/12/23 01:37:25;;;;;;;39.65;19.13;;;-4.10;99.90;;;;;;5072580;28;20023;-69
2021/12/23 01:39:50;;;;;;;35.92;17.13;;;-4.10;99.90;;;;;;5073397;28;20119;-69
2021/12/23 01:42:16;;;;;;;37.88;18.50;;;-4.10;99.90;;;;;;5090256;28;20130;-69
2021/12/23 01:44:42;;;;;;;35.15;17.90;;;-4.10;99.90;;;;;;5073874;28;20122;-69
2021/12/23 01:47:07;;;;;;;38.67;18.65;;;-4.10;99.90;;;;;;5073282;28;20105;-69
2021/12/23 01:49:33;;;;;;;37.17;18.40;;;-4.10;99.90;;;;;;5072838;28;20028;-70
2021/12/23 01:51:59;;;;;;;33.72;17.02;;;-4.00;99.90;;;;;;5073155;28;20034;-68
2021/12/23 01:54:24;;;;;;;39.03;18.13;;;-4.00;99.90;;;;;;5072906;28;20052;-69
2021/12/23 01:56:50;;;;;;;38.78;17.85;;;-4.00;99.90;;;;;;5077300;28;20085;-69
2021/12/23 01:59:16;;;;;;;40.72;18.80;;;-3.90;99.90;;;;;;5071781;28;20081;-69
2021/12/23 02:01:44;;;;;;;34.72;17.83;;;-3.90;99.90;;;;;;5073142;28;20068;-70
2021/12/23 02:04:10;;;;;;;39.05;17.60;;;-4.00;99.90;;;;;;5074550;28;20032;-69
2021/12/23 02:06:36;;;;;;;36.38;17.00;;;-4.00;99.90;;;;;;5076332;28;20105;-70
2021/12/23 02:09:03;;;;;;;40.78;18.05;;;-4.00;99.90;;;;;;5073206;28;20024;-69
2021/12/23 02:11:29;;;;;;;35.75;17.40;;;-4.00;99.90;;;;;;5083124;28;20020;-70
2021/12/23 02:13:55;;;;;;;40.10;17.73;;;-4.00;99.90;;;;;;5072692;28;20016;-69
2021/12/23 02:16:20;;;;;;;38.05;17.60;;;-3.90;99.90;;;;;;5072206;28;20524;-69
2021/12/23 02:18:46;;;;;;;40.00;18.75;;;-4.00;99.90;;;;;;5088383;28;20048;-70
2021/12/23 02:21:12;;;;;;;36.25;16.80;;;-4.00;99.90;;;;;;5068663;28;20024;-69
2021/12/23 02:23:38;;;;;;;39.63;18.13;;;-4.00;99.90;;;;;;5073648;28;20039;-70
2021/12/23 02:26:04;;;;;;;35.95;16.77;;;-4.00;99.90;;;;;;5075407;28;20020;-69
2021/12/23 02:28:30;;;;;;;39.63;17.83;;;-4.00;99.90;;;;;;5074439;28;20024;-69
2021/12/23 02:30:56;;;;;;;40.28;18.42;;;-4.00;99.90;;;;;;5074394;28;20020;-70
2021/12/23 02:33:24;;;;;;;39.78;17.95;;;-4.00;99.90;;;;;;5073741;28;20495;-70
2021/12/23 02:35:52;;;;;;;38.00;17.60;;;-4.00;99.90;;;;;;5074104;28;20031;-69
2021/12/23 02:38:18;;;;;;;35.63;17.00;;;-4.00;99.90;;;;;;5071418;28;20039;-69
2021/12/23 02:40:45;;;;;;;39.53;18.35;;;-4.00;99.90;;;;;;5070895;28;20028;-70
2021/12/23 02:43:22;;;;;;;35.97;16.25;;;-3.90;99.90;;;;;;5063884;28;20251;-69
2021/12/23 02:45:50;;;;;;;36.38;17.60;;;-3.90;99.90;;;;;;5086945;28;20028;-69
2021/12/23 02:48:33;;;;;;;36.15;17.60;;;-3.90;99.90;;;;;;5071664;28;20030;-70
2021/12/23 02:51:02;;;;;;;39.28;17.00;;;-3.90;99.90;;;;;;5074890;28;20500;-68
2021/12/23 02:53:28;;;;;;;40.17;18.02;;;-3.90;99.90;;;;;;5070422;28;20023;-69
2021/12/23 02:55:56;;;;;;;37.50;16.92;;;-3.80;99.90;;;;;;5072348;28;20028;-69
2021/12/23 02:58:23;;;;;;;35.63;16.73;;;-3.90;99.90;;;;;;5071945;28;20123;-69
2021/12/23 03:00:51;;;;;;;39.88;17.85;;;-3.90;99.90;;;;;;5072079;28;20447;-69
2021/12/23 03:03:18;;;;;;;38.97;17.58;;;-3.90;99.90;;;;;;5074557;28;20498;-70
2021/12/23 03:05:52;;;;;;;39.30;18.42;;;-3.90;99.90;;;;;;5078392;28;20032;-69
2021/12/23 03:08:40;;;;;;;38.28;17.35;;;-3.90;99.90;;;;;;5080360;28;20086;-70
2021/12/23 03:11:08;;;;;;;35.60;16.75;;;-3.90;99.90;;;;;;5072291;28;20361;-69
2021/12/23 03:13:34;;;;;;;34.10;16.75;;;-3.90;99.90;;;;;;5072130;28;20365;-69
2021/12/23 03:16:00;;;;;;;31.55;16.02;;;-3.90;99.90;;;;;;5088190;28;20115;-69
2021/12/23 03:18:27;;;;;;;38.88;17.55;;;-3.80;99.90;;;;;;5070665;28;20028;-69
2021/12/23 03:20:52;;;;;;;35.50;16.95;;;-3.80;99.90;;;;;;5072362;28;20024;-69
2021/12/23 03:23:18;;;;;;;34.92;17.40;;;-3.80;99.90;;;;;;5072466;28;20364;-68
2021/12/23 03:25:44;;;;;;;36.72;16.77;;;-3.90;99.90;;;;;;5073458;28;20081;-68
2021/12/23 03:28:10;;;;;;;41.05;18.02;;;-3.90;99.90;;;;;;5077147;28;20030;-68
2021/12/23 03:30:36;;;;;;;38.88;18.08;;;-3.90;99.90;;;;;;5072264;28;20392;-68
2021/12/23 03:33:02;;;;;;;34.35;17.80;;;-3.90;99.90;;;;;;5073074;28;20553;-69
2021/12/23 03:35:27;;;;;;;36.33;17.52;;;-4.00;99.90;;;;;;5073130;28;20024;-69
2021/12/23 03:37:53;;;;;;;38.17;18.92;;;-4.00;99.90;;;;;;5071117;28;20106;-69
2021/12/23 03:40:20;;;;;;;37.80;17.88;;;-4.10;99.90;;;;;;5066282;28;20031;-69
2021/12/23 03:42:45;;;;;;;44.78;19.48;;;-4.10;99.90;;;;;;5072052;28;20107;-69
2021/12/23 03:45:11;;;;;;;38.00;18.30;;;-4.10;99.90;;;;;;5063718;28;20496;-69
2021/12/23 03:47:38;;;;;;;35.70;18.25;;;-4.00;99.90;;;;;;5071460;28;20514;-69
2021/12/23 03:50:05;;;;;;;39.53;18.95;;;-4.00;99.90;;;;;;5073057;28;20317;-69
2021/12/23 03:52:31;;;;;;;39.17;18.25;;;-3.90;99.90;;;;;;5073268;28;20035;-69
2021/12/23 03:54:57;;;;;;;34.47;17.17;;;-3.90;99.90;;;;;;5073160;28;20391;-69
2021/12/23 03:57:23;;;;;;;43.58;18.73;;;-3.80;99.90;;;;;;5071473;28;20024;-69
2021/12/23 03:59:48;;;;;;;36.78;17.60;;;-3.70;99.90;;;;;;5076447;28;20024;-69
2021/12/23 04:02:14;;;;;;;33.53;16.50;;;-3.70;99.90;;;;;;5076420;28;20098;-69
2021/12/23 04:04:40;;;;;;;40.60;18.33;;;-3.70;99.90;;;;;;5079358;28;20032;-68
2021/12/23 04:07:06;;;;;;;44.83;19.38;;;-3.60;99.90;;;;;;5091071;28;20066;-69
2021/12/23 04:09:31;;;;;;;38.00;17.67;;;-3.60;99.90;;;;;;5081388;28;20089;-68
2021/12/23 04:11:57;;;;;;;39.05;18.45;;;-3.60;99.90;;;;;;5084408;28;20066;-69
2021/12/23 04:14:23;;;;;;;36.47;18.00;;;-3.60;99.90;;;;;;5082750;28;20024;-69
2021/12/23 04:16:48;;;;;;;37.97;18.23;;;-3.60;99.90;;;;;;5095085;28;20032;-69
2021/12/23 04:19:14;;;;;;;37.95;17.75;;;-3.60;99.90;;;;;;5086342;28;20024;-70
2021/12/23 04:21:41;;;;;;;43.50;19.23;;;-3.60;99.90;;;;;;5080088;28;20679;-69
2021/12/23 04:24:08;;;;;;;39.15;17.88;;;-3.60;99.90;;;;;;5092291;28;20115;-68
2021/12/23 04:26:35;;;;;;;40.97;18.10;;;-3.60;99.90;;;;;;5074475;28;20051;-69
2021/12/23 04:29:01;;;;;;;37.63;16.75;;;-3.60;99.90;;;;;;5088602;28;20032;-69
2021/12/23 04:31:27;;;;;;;35.38;17.45;;;-3.60;99.90;;;;;;5066090;28;20051;-69
2021/12/23 04:33:54;;;;;;;38.95;18.88;;;-3.60;99.90;;;;;;5074461;28;20035;-69
2021/12/23 04:36:21;;;;;;;43.05;19.13;;;-3.60;99.90;;;;;;5072563;28;20035;-69
2021/12/23 04:38:47;;;;;;;39.47;18.48;;;-3.70;99.90;;;;;;5069189;28;20500;-69
2021/12/23 04:41:14;;;;;;;39.38;17.45;;;-3.70;99.90;;;;;;5095128;28;20035;-69
2021/12/23 04:43:41;;;;;;;38.65;18.20;;;-3.80;99.90;;;;;;5096386;28;20422;-69
2021/12/23 04:46:07;;;;;;;44.17;19.45;;;-3.80;99.90;;;;;;5065441;28;20025;-69
2021/12/23 04:48:36;;;;;;;39.00;18.27;;;-3.90;99.90;;;;;;5076043;28;20047;-70
2021/12/23 04:51:06;;;;;;;37.97;18.98;;;-3.90;99.90;;;;;;5075596;28;20029;-69
2021/12/23 04:53:32;;;;;;;41.65;18.17;;;-3.90;99.90;;;;;;5073678;28;20037;-70
2021/12/23 04:55:57;;;;;;;37.15;17.98;;;-4.00;99.90;;;;;;5065530;28;20032;-70
2021/12/23 04:58:24;;;;;;;41.00;18.98;;;-4.00;99.90;;;;;;5074133;28;20057;-69
2021/12/23 05:00:51;;;;;;;43.33;18.75;;;-4.00;99.90;;;;;;5062378;28;20028;-70
2021/12/23 05:03:19;;;;;;;40.33;18.90;;;-4.00;99.90;;;;;;5071780;28;20090;-70
2021/12/23 05:05:45;;;;;;;39.85;19.10;;;-3.90;99.90;;;;;;5062280;28;20064;-70
2021/12/23 05:08:12;;;;;;;37.38;17.38;;;-3.90;99.90;;;;;;5074020;28;20032;-70
2021/12/23 05:10:38;;;;;;;39.72;18.55;;;-3.90;99.90;;;;;;5079193;28;20093;-70
2021/12/23 05:13:04;;;;;;;39.55;19.25;;;-3.90;99.90;;;;;;5071500;28;20027;-70
2021/12/23 05:15:30;;;;;;;44.05;19.80;;;-3.90;99.90;;;;;;5069815;28;20039;-71
2021/12/23 05:17:56;;;;;;;33.35;16.40;;;-3.90;99.90;;;;;;5073583;28;20140;-69
2021/12/23 05:20:22;;;;;;;43.00;19.42;;;-3.90;99.90;;;;;;5069908;28;20638;-70
2021/12/23 05:22:48;;;;;;;41.40;18.08;;;-3.90;99.90;;;;;;5071384;28;20046;-70
2021/12/23 05:25:15;;;;;;;39.05;17.55;;;-3.90;99.90;;;;;;5063623;28;20036;-70
2021/12/23 05:27:40;;;;;;;42.78;18.67;;;-3.80;99.90;;;;;;5068469;28;20467;-70
2021/12/23 05:30:10;;;;;;;40.53;18.23;;;-3.80;99.90;;;;;;5074004;28;20115;-70
2021/12/23 05:32:36;;;;;;;35.88;17.92;;;-3.80;99.90;;;;;;5073347;28;20392;-69
2021/12/23 05:35:02;;;;;;;38.03;17.77;;;-3.70;99.90;;;;;;5074026;28;20024;-70
2021/12/23 05:37:28;;;;;;;42.20;18.15;;;-3.70;99.90;;;;;;5073514;28;20028;-70
2021/12/23 05:39:54;;;;;;;39.20;17.08;;;-3.70;99.90;;;;;;5089968;28;20024;-70
2021/12/23 05:42:19;;;;;;;38.67;18.42;;;-3.70;99.90;;;;;;5091913;28;20035;-70
2021/12/23 05:44:45;;;;;;;38.17;17.48;;;-3.60;99.90;;;;;;5074286;28;20020;-69
2021/12/23 05:47:11;;;;;;;38.85;17.85;;;-3.70;99.90;;;;;;5073403;28;20426;-70
2021/12/23 05:49:36;;;;;;;41.95;18.83;;;-3.70;99.90;;;;;;5077136;28;20036;-70
2021/12/23 05:52:02;;;;;;;38.58;17.83;;;-3.70;99.90;;;;;;5075807;28;20395;-70
2021/12/23 05:54:28;;;;;;;41.67;19.20;;;-3.70;99.90;;;;;;5070631;28;20039;-70
2021/12/23 05:56:57;;;;;;;43.05;19.52;;;-3.70;99.90;;;;;;5073931;28;20028;-69
2021/12/23 05:59:22;;;;;;;39.72;18.48;;;-3.70;99.90;;;;;;5069895;28;20039;-70
2021/12/23 06:01:48;;;;;;;43.38;18.75;;;-3.80;99.90;;;;;;5080464;28;20020;-69
2021/12/23 06:04:14;;;;;;;37.70;17.55;;;-3.80;99.90;;;;;;5074526;28;20035;-70
2021/12/23 06:06:40;;;;;;;42.30;19.65;;;-3.80;99.90;;;;;;5073729;28;20028;-70
2021/12/23 06:09:06;;;;;;;40.42;19.48;;;-3.80;99.90;;;;;;5071898;28;20377;-69
2021/12/23 06:11:32;;;;;;;43.63;19.38;;;-3.80;99.90;;;;;;5074172;28;20031;-69
2021/12/23 06:13:57;;;;;;;40.63;17.70;;;-3.80;99.90;;;;;;5090744;28;21918;-70
2021/12/23 06:16:23;;;;;;;37.60;17.65;;;-3.80;99.90;;;;;;5071250;28;20024;-70
2021/12/23 06:18:49;;;;;;;40.22;18.67;;;-3.80;99.90;;;;;;5078840;28;20035;-70
2021/12/23 06:21:14;;;;;;;41.42;18.65;;;-3.80;99.90;;;;;;5084860;28;20100;-69
2021/12/23 06:23:40;;;;;;;38.33;17.60;;;-3.80;99.90;;;;;;5080778;28;20119;-69
2021/12/23 06:26:06;;;;;;;41.42;18.52;;;-3.80;99.90;;;;;;5071855;28;20028;-70
2021/12/23 06:28:31;;;;;;;41.33;18.65;;;-3.80;99.90;;;;;;5088770;28;20040;-70
2021/12/23 06:30:57;;;;;;;36.78;17.65;;;-3.80;99.90;;;;;;5073668;28;20024;-70
2021/12/23 06:33:23;;;;;;;40.25;17.70;;;-3.90;99.90;;;;;;5072642;28;20051;-70
2021/12/23 06:35:49;;;;;;;42.10;19.02;;;-3.90;99.90;;;;;;5085210;28;20468;-69
2021/12/23 06:38:14;;;;;;;38.53;17.80;;;-3.90;99.90;;;;;;5074216;28;20524;-70
2021/12/23 06:40:41;;;;;;;37.10;16.67;;;-3.80;99.90;;;;;;5071878;28;20020;-69
2021/12/23 06:43:07;;;;;;;44.25;19.00;;;-3.80;99.90;;;;;;5073312;28;20028;-68
2021/12/23 06:45:33;;;;;;;40.42;17.52;;;-3.80;99.90;;;;;;5072018;28;20032;-69
2021/12/23 06:47:59;;;;;;;38.60;18.73;;;-3.80;99.90;;;;;;5070122;28;20403;-69
2021/12/23 06:50:25;;;;;;;45.15;18.95;;;-3.80;99.90;;;;;;5077815;28;20473;-69
2021/12/23 06:52:51;;;;;;;42.45;19.48;;;-3.80;99.90;;;;;;5073234;28;20039;-71
2021/12/23 06:55:18;;;;;;;42.72;19.55;;;-3.80;99.90;;;;;;5073447;28;20031;-71
2021/12/23 06:57:43;;;;;;;39.45;17.77;;;-3.80;99.90;;;;;;5072448;28;20051;-71
2021/12/23 07:00:14;;;;;;;40.22;18.67;;;-3.70;99.90;;;;;;5093364;28;20062;-70
2021/12/23 07:02:40;;;;;;;46.65;21.25;;;-3.70;99.90;;;;;;5072163;28;20117;-72
2021/12/23 07:05:07;;;;;;;42.13;19.02;;;-3.70;99.90;;;;;;5072316;28;20056;-70
2021/12/23 07:07:41;;;;;;;38.28;18.10;;;-3.70;99.90;;;;;;5074459;28;20054;-69
2021/12/23 07:10:10;;;;;;;40.45;18.48;;;-3.70;99.90;;;;;;5074535;28;20073;-70
2021/12/23 07:12:36;;;;;;;40.58;17.98;;;-3.70;99.90;;;;;;5071961;28;20050;-71
2021/12/23 07:15:02;;;;;;;41.92;19.05;;;-3.70;99.90;;;;;;5071237;28;20043;-70
2021/12/23 07:17:28;;;;;;;41.95;19.45;;;-3.70;99.90;;;;;;5062552;28;20048;-70
2021/12/23 07:19:54;;;;;;;42.67;18.95;;;-3.70;99.90;;;;;;5080503;28;20020;-69
2021/12/23 07:22:19;;;;;;;45.63;19.02;;;-3.70;99.90;;;;;;5073112;28;20020;-70
2021/12/23 07:24:45;;;;;;;38.42;18.60;;;-3.70;99.90;;;;;;5072717;28;20660;-69
2021/12/23 07:27:11;;;;;;;43.85;20.15;;;-3.80;99.90;;;;;;5079349;28;20020;-69
2021/12/23 07:29:37;;;;;;;42.85;19.50;;;-3.80;99.90;;;;;;5074920;28;20036;-68
2021/12/23 07:32:04;;;;;;;46.85;22.40;;;-3.70;99.90;;;;;;5075050;28;20031;-69
2021/12/23 07:34:31;;;;;;;44.72;20.92;;;-3.70;99.90;;;;;;5077742;28;20053;-70
2021/12/23 07:36:56;;;;;;;41.80;19.40;;;-3.80;99.90;;;;;;5079676;28;20039;-69
2021/12/23 07:39:22;;;;;;;36.83;18.50;;;-3.80;99.90;;;;;;5075604;28;20055;-69
2021/12/23 07:41:48;;;;;;;43.88;18.65;;;-3.80;99.90;;;;;;5078454;28;20039;-70
2021/12/23 07:44:20;;;;;;;42.95;18.90;;;-3.80;99.90;;;;;;5083736;28;20058;-70
2021/12/23 07:46:48;;;;;;;45.38;19.38;;;-3.80;99.90;;;;;;5076853;28;20392;-71
2021/12/23 07:49:14;;;;;;;45.58;19.25;;;-3.70;99.90;;;;;;5085370;28;20032;-71
2021/12/23 07:51:40;;;;;;;37.92;18.95;;;-3.60;99.90;;;;;;5073989;28;20028;-71
2021/12/23 07:54:06;;;;;;;40.30;18.30;;;-3.60;99.90;;;;;;5071523;28;20031;-70
2021/12/23 07:56:32;;;;;;;44.15;19.83;;;-3.60;99.90;;;;;;5075741;28;20032;-70
2021/12/23 07:58:58;;;;;;;40.90;18.55;;;-3.60;99.90;;;;;;5086654;28;20024;-71
2021/12/23 08:01:24;;;;;;;41.20;18.77;;;-3.60;99.90;;;;;;5070815;28;20057;-69
2021/12/23 08:03:50;;;;;;;40.97;19.23;;;-3.60;99.90;;;;;;5072960;28;20542;-69
2021/12/23 08:06:16;;;;;;;44.53;19.55;;;-3.70;99.90;;;;;;5076014;28;20070;-69
2021/12/23 08:08:42;;;;;;;46.92;19.88;;;-3.70;99.90;;;;;;5078694;28;20028;-69
2021/12/23 08:11:09;;;;;;;43.75;19.83;;;-3.70;99.90;;;;;;5078945;28;20536;-70
2021/12/23 08:13:35;;;;;;;41.45;18.70;;;-3.60;99.90;;;;;;5074383;28;20115;-69
2021/12/23 08:16:01;;;;;;;44.20;18.77;;;-3.50;99.90;;;;;;5075470;28;20392;-69
2021/12/23 08:18:31;;;;;;;46.75;19.38;;;-3.40;99.90;;;;;;5080454;28;20039;-69
2021/12/23 08:20:58;;;;;;;39.95;17.45;;;-3.30;99.90;;;;;;5099416;28;20116;-70
2021/12/23 08:23:24;;;;;;;40.15;18.30;;;-3.20;99.90;;;;;;5097346;28;20049;-68
2021/12/23 08:25:50;;;;;;;45.47;19.92;;;-3.20;99.90;;;;;;5098629;28;20038;-69
2021/12/23 08:28:16;;;;;;;42.22;19.73;;;-3.10;99.90;;;;;;5082676;28;20032;-69
2021/12/23 08:30:42;;;;;;;44.42;18.80;;;-3.10;99.90;;;;;;5080627;28;20020;-69
2021/12/23 08:33:08;;;;;;;44.85;19.65;;;-3.00;99.90;;;;;;5078723;28;20027;-69
2021/12/23 08:35:35;;;;;;;47.38;19.98;;;-3.00;99.90;;;;;;5074227;28;20070;-69
2021/12/23 08:38:05;;;;;;;43.13;20.25;;;-3.00;99.90;;;;;;5077746;28;20035;-69
2021/12/23 08:40:31;;;;;;;46.67;19.38;;;-3.00;99.90;;;;;;5092941;28;20032;-69
2021/12/23 08:42:58;;;;;;;49.17;20.75;;;-2.90;99.90;;;;;;5074656;28;20020;-68
2021/12/23 08:45:25;;;;;;;44.28;18.85;;;-2.90;99.90;;;;;;5091184;28;20451;-68
2021/12/23 08:47:54;;;;;;;47.45;19.98;;;-2.80;99.90;;;;;;5099505;28;20040;-69
2021/12/23 08:50:21;;;;;;;44.22;18.70;;;-2.80;99.90;;;;;;5075825;28;20020;-68
2021/12/23 08:52:48;;;;;;;40.92;19.48;;;-2.70;99.90;;;;;;5082149;28;20020;-69
2021/12/23 08:55:14;;;;;;;40.92;18.35;;;-2.70;99.90;;;;;;5075844;28;20440;-70
2021/12/23 08:57:42;;;;;;;46.75;20.92;;;-2.70;99.90;;;;;;5076423;28;20059;-69
2021/12/23 09:00:12;;;;;;;43.58;20.25;;;-2.60;99.90;;;;;;5078541;28;20020;-69
2021/12/23 09:02:38;;;;;;;44.33;20.05;;;-2.60;99.90;;;;;;5072485;28;20400;-68
2021/12/23 09:05:05;;;;;;;42.42;19.23;;;-2.50;99.90;;;;;;5070503;28;20025;-68
2021/12/23 09:07:31;;;;;;;44.17;20.30;;;-2.40;99.90;;;;;;5070375;28;20519;-68
2021/12/23 09:09:56;;;;;;;41.92;19.25;;;-2.40;99.90;;;;;;5073416;28;20099;-67
2021/12/23 09:12:23;;;;;;;41.30;19.17;;;-2.30;99.90;;;;;;5072857;28;20024;-67
2021/12/23 09:14:49;;;;;;;45.60;19.77;;;-2.20;99.90;;;;;;5074003;28;20024;-68
2021/12/23 09:17:15;;;;;;;46.20;21.45;;;-2.10;99.90;;;;;;5074376;28;20504;-68
2021/12/23 09:19:42;;;;;;;49.45;21.35;;;-2.10;99.90;;;;;;5078129;28;20107;-68
2021/12/23 09:22:09;;;;;;;42.00;19.80;;;-2.00;99.90;;;;;;5074344;28;20054;-69
2021/12/23 09:24:37;;;;;;;40.22;19.33;;;-2.10;99.90;;;;;;5073264;28;20503;-69
2021/12/23 09:35:02;;;;;;;44.45;20.27;;;-1.90;99.90;;;;;;5081432;28;20043;-68
2021/12/23 09:37:28;;;;;;;45.40;20.65;;;-1.90;99.90;;;;;;5080406;28;20123;-68
2021/12/23 09:39:57;;;;;;;48.92;20.55;;;-1.90;99.90;;;;;;5081814;28;20134;-68
2021/12/23 09:42:29;;;;;;;53.85;23.25;;;-1.80;99.90;;;;;;5073656;28;20118;-69
2021/12/23 09:44:58;;;;;;;52.40;23.35;;;-1.70;99.90;;;;;;5090141;28;20020;-69
2021/12/23 09:47:31;;;;;;;39.08;18.67;;;-1.70;99.90;;;;;;5070004;28;20036;-67
2021/12/23 09:49:58;;;;;;;;;;;-1.70;99.90;;;;;;5084165;28;20507;-67
2021/12/23 09:52:26;;;;;;;40.85;18.27;;;-1.60;99.90;;;;;;5084116;28;21407;-68
2021/12/23 09:54:54;;;;;;;47.75;20.38;;;-1.60;99.90;;;;;;5081552;28;20068;-68
2021/12/23 09:57:21;;;;;;;43.10;19.48;;;-1.50;99.90;;;;;;5072410;28;20028;-67
2021/12/23 09:59:47;;;;;;;40.75;18.33;;;-1.50;99.90;;;;;;5071689;28;20020;-71
2021/12/23 10:02:13;;;;;;;41.63;18.67;;;-1.40;99.90;;;;;;5071288;28;20028;-68
2021/12/23 10:04:38;;;;;;;42.53;19.27;;;-1.40;99.90;;;;;;5080688;28;20160;-68
2021/12/23 10:07:04;;;;;;;41.63;19.50;;;-1.40;99.90;;;;;;5077311;28;20055;-68
2021/12/23 10:09:44;;;;;;;40.78;18.52;;;-1.30;99.90;;;;;;5071233;28;20016;-68
2021/12/23 10:31:33;;;;;;;;;;;-0.90;99.90;;;;;;5088626;28;20089;-67
2021/12/23 10:37:23;;;;;;;37.20;15.73;;;-0.80;99.90;;;;;;5082867;28;20028;-67
2021/12/23 10:40:04;;;;;;;30.23;13.85;;;-0.70;99.90;;;;;;5101585;28;20028;-68
2021/12/23 10:42:31;;;;;;;33.08;15.15;;;-0.70;99.90;;;;;;5089443;28;20034;-68
2021/12/23 10:45:09;;;;;;;31.00;14.15;;;-0.60;99.90;;;;;;5073636;28;20039;-68
2021/12/23 10:48:08;;;;;;;30.98;15.07;;;-0.50;99.90;;;;;;5066627;28;20046;-68
2021/12/23 10:50:50;;;;;;;28.98;14.52;;;-0.50;99.90;;;;;;5075086;28;20043;-68
2021/12/23 10:54:20;;;;;;;28.92;13.80;;;-0.30;99.90;;;;;;5074668;28;20035;-67
2021/12/23 10:59:11;;;;;;;28.10;13.32;;;-0.20;99.90;;;;;;5087134;28;20031;-68
2021/12/23 11:01:59;;;;;;;26.70;13.30;;;-0.10;99.90;;;;;;5084885;28;20082;-67
2021/12/23 11:04:25;;;;;;;32.00;13.02;;;0.00;99.90;;;;;;5088767;28;20028;-68
2021/12/23 11:07:15;;;;;;;28.02;12.52;;;0.10;99.90;;;;;;5085696;28;20035;-67
2021/12/23 11:10:08;;;;;;;24.58;13.60;;;0.10;99.90;;;;;;5078653;28;20040;-67
2021/12/23 11:35:49;;;;;;;22.92;11.90;;;0.80;99.90;;;;;;5067233;28;20032;-67
2021/12/23 11:43:50;;;;;;;20.58;11.48;;;1.00;99.90;;;;;;5061110;28;20024;-68
2021/12/23 11:46:20;;;;;;;21.85;11.27;;;1.10;99.90;;;;;;5066178;28;20504;-67
2021/12/23 11:48:51;;;;;;;22.13;11.55;;;1.20;99.90;;;;;;5068809;28;20029;-66
2021/12/23 11:51:21;;;;;;;20.35;10.80;;;1.20;99.90;;;;;;5066196;28;20585;-68
2021/12/23 11:53:49;;;;;;;23.30;12.02;;;1.30;99.90;;;;;;5049981;28;20029;-67
2021/12/23 11:56:18;;;;;;;22.42;11.77;;;1.30;99.90;;;;;;5063658;28;20028;-67
2021/12/23 11:58:47;;;;;;;24.52;12.05;;;1.30;99.90;;;;;;5058782;28;20124;-68
2021/12/23 12:01:28;;;;;;;24.85;12.32;;;1.40;99.90;;;;;;5066016;28;20025;-68
2021/12/23 12:03:57;;;;;;;17.87;9.47;;;1.40;99.90;;;;;;5065273;28;20040;-68
2021/12/23 12:06:28;;;;;;;24.05;11.77;;;1.50;99.90;;;;;;5061720;28;20028;-67
2021/12/23 12:08:56;;;;;;;21.15;11.18;;;1.50;99.90;;;;;;5061391;28;20140;-68
2021/12/23 12:11:24;;;;;;;23.75;11.35;;;1.50;99.90;;;;;;5061894;28;20112;-68
2021/12/23 12:13:50;;;;;;;21.77;11.25;;;1.60;99.90;;;;;;5064599;28;20087;-67
2021/12/23 12:16:33;;;;;;;19.42;10.80;;;1.60;99.90;;;;;;5062084;28;20025;-67
2021/12/23 12:19:00;;;;;;;20.30;11.70;;;1.60;99.90;;;;;;5065741;28;20058;-68
2021/12/23 12:21:31;;;;;;;23.85;12.70;;;1.60;99.90;;;;;;5046399;28;20025;-68
2021/12/23 12:24:15;;;;;;;20.25;10.38;;;1.70;99.90;;;;;;5053121;28;20305;-68
2021/12/23 12:27:01;;;;;;;19.58;10.57;;;1.70;99.90;;;;;;5065250;28;20110;-68
2021/12/23 12:29:36;;;;;;;25.58;12.50;;;1.80;99.90;;;;;;5053303;28;20036;-68
2021/12/23 12:32:03;;;;;;;18.90;10.05;;;1.80;99.90;;;;;;5065674;28;20051;-68
2021/12/23 12:34:37;;;;;;;17.33;10.23;;;1.90;99.90;;;;;;5075408;28;20021;-67
2021/12/23 12:37:05;;;;;;;21.45;10.93;;;1.90;99.90;;;;;;5065522;28;20029;-68
2021/12/23 12:39:40;;;;;;;19.65;10.63;;;1.90;99.90;;;;;;5055390;28;20033;-68
2021/12/23 12:42:10;;;;;;;18.45;9.43;;;2.00;99.90;;;;;;5052521;28;20083;-66
2021/12/23 12:44:48;;;;;;;18.42;9.73;;;2.00;99.90;;;;;;5052261;28;20040;-67
2021/12/23 12:47:24;;;;;;;15.50;9.02;;;2.00;99.90;;;;;;5056804;28;20044;-67
2021/12/23 12:50:03;;;;;;;18.95;9.48;;;2.10;99.90;;;;;;5052426;28;20064;-67
2021/12/23 12:52:51;;;;;;;18.15;10.15;;;2.10;99.90;;;;;;5033856;28;20025;-66
2021/12/23 12:55:28;;;;;;;21.88;10.88;;;2.10;99.90;;;;;;5050953;28;20036;-66
2021/12/23 12:58:04;;;;;;;19.35;10.23;;;2.20;99.90;;;;;;5051136;28;20029;-66
2021/12/23 13:00:39;;;;;;;16.60;9.20;;;2.20;99.90;;;;;;5053090;28;20025;-67
2021/12/23 13:03:20;;;;;;;15.90;8.88;;;2.20;99.90;;;;;;5049560;28;20032;-67
2021/12/23 13:05:52;;;;;;;19.08;9.35;;;2.20;99.90;;;;;;5060834;28;20040;-67
2021/12/23 13:08:32;;;;;;;19.05;9.48;;;2.20;99.90;;;;;;5050200;28;20388;-67
2021/12/23 13:11:17;;;;;;;16.92;9.10;;;2.20;99.90;;;;;;5051911;28;20025;-67
2021/12/23 13:13:46;;;;;;;15.30;9.02;;;2.30;99.90;;;;;;5052576;28;20499;-72
2021/12/23 13:16:20;;;;;;;13.70;8.27;;;2.30;99.90;;;;;;5063481;28;20021;-72
2021/12/23 13:18:46;;;;;;;16.58;9.23;;;2.40;99.90;;;;;;5057320;28;20029;-70
2021/12/23 13:21:23;;;;;;;15.68;8.65;;;2.40;99.90;;;;;;5052562;28;20037;-70
2021/12/23 13:23:49;;;;;;;15.02;8.35;;;2.40;99.90;;;;;;5044952;28;20021;-69
2021/12/23 13:26:19;;;;;;;14.75;8.20;;;2.50;99.90;;;;;;5048486;28;20037;-68
2021/12/23 13:28:52;;;;;;;18.17;8.75;;;2.50;99.90;;;;;;5039643;28;20056;-68
2021/12/23 13:31:19;;;;;;;17.05;9.10;;;2.60;99.90;;;;;;5047109;28;20090;-69
2021/12/23 13:33:57;;;;;;;14.00;8.30;;;2.60;99.90;;;;;;5048759;28;20025;-68
2021/12/23 13:36:26;;;;;;;15.68;8.80;;;2.60;99.90;;;;;;5050204;28;20025;-68
2021/12/23 13:38:57;;;;;;;16.50;8.70;;;2.60;99.90;;;;;;5046785;28;20570;-68
2021/12/23 13:41:29;;;;;;;21.35;10.93;;;2.60;99.90;;;;;;5058444;28;20037;-70
2021/12/23 13:44:16;;;;;;;;;;;2.60;99.90;;;;;;5039617;28;20085;-68
2021/12/23 13:46:45;;;;;;;14.68;7.90;;;2.60;99.90;;;;;;5048474;28;20273;-67
2021/12/23 13:49:13;;;;;;;12.77;7.65;;;2.60;99.90;;;;;;5048545;28;20032;-67
2021/12/23 13:51:41;;;;;;;15.38;8.00;;;2.60;99.90;;;;;;5047321;28;20104;-68